sensor_id;sensor_type;location;lat;lon;timestamp;P1;durP1;ratioP1;P2;durP2;ratioP2
55090;SDS011;40985;53.180;5.800;2023-05-10T00:02:08;11.07;;;10.27;;
55090;SDS011;40985;53.180;5.800;2023-05-10T00:04:34;11.65;;;10.73;;
55090;SDS011;40985;53.180;5.800;2023-05-10T00:07:00;11.63;;;10.82;;
55090;SDS011;40985;53.180;5.800;2023-05-10T00:09:26;11.48;;;10.68;;
55090;SDS011;40985;53.180;5.800;2023-05-10T00:11:52;10.73;;;9.93;;
55090;SDS011;40985;53.180;5.800;2023-05-10T00:14:18;7.93;;;7.43;;
55090;SDS011;40985;53.180;5.800;2023-05-10T00:16:43;7.68;;;7.18;;
55090;SDS011;40985;53.180;5.800;2023-05-10T00:19:09;6.57;;;6.25;;
55090;SDS011;40985;53.180;5.800;2023-05-10T00:21:35;4.30;;;4.10;;
55090;SDS011;40985;53.180;5.800;2023-05-10T00:24:01;2.90;;;2.80;;
55090;SDS011;40985;53.180;5.800;2023-05-10T00:26:26;3.08;;;2.88;;
55090;SDS011;40985;53.180;5.800;2023-05-10T00:28:52;3.03;;;2.92;;
55090;SDS011;40985;53.180;5.800;2023-05-10T00:31:18;3.08;;;2.97;;
55090;SDS011;40985;53.180;5.800;2023-05-10T00:33:43;3.30;;;3.20;;
55090;SDS011;40985;53.180;5.800;2023-05-10T00:36:09;3.60;;;3.50;;
55090;SDS011;40985;53.180;5.800;2023-05-10T00:38:35;4.10;;;3.90;;
55090;SDS011;40985;53.180;5.800;2023-05-10T00:41:01;4.20;;;3.90;;
55090;SDS011;40985;53.180;5.800;2023-05-10T00:43:26;4.22;;;4.03;;
55090;SDS011;40985;53.180;5.800;2023-05-10T00:45:52;5.07;;;4.80;;
55090;SDS011;40985;53.180;5.800;2023-05-10T00:48:18;6.80;;;6.30;;
55090;SDS011;40985;53.180;5.800;2023-05-10T00:50:44;13.65;;;9.25;;
55090;SDS011;40985;53.180;5.800;2023-05-10T00:53:10;14.52;;;9.73;;
55090;SDS011;40985;53.180;5.800;2023-05-10T00:55:36;11.60;;;10.30;;
55090;SDS011;40985;53.180;5.800;2023-05-10T00:58:03;18.67;;;12.85;;
55090;SDS011;40985;53.180;5.800;2023-05-10T01:00:29;19.42;;;14.43;;
55090;SDS011;40985;53.180;5.800;2023-05-10T01:02:55;22.92;;;15.63;;
55090;SDS011;40985;53.180;5.800;2023-05-10T01:05:21;23.38;;;18.63;;
55090;SDS011;40985;53.180;5.800;2023-05-10T01:07:46;25.17;;;19.55;;
55090;SDS011;40985;53.180;5.800;2023-05-10T01:10:13;25.08;;;21.05;;
55090;SDS011;40985;53.180;5.800;2023-05-10T01:12:40;26.42;;;21.45;;
55090;SDS011;40985;53.180;5.800;2023-05-10T01:15:07;28.10;;;21.90;;
55090;SDS011;40985;53.180;5.800;2023-05-10T01:17:36;23.33;;;17.98;;
55090;SDS011;40985;53.180;5.800;2023-05-10T01:20:04;21.92;;;18.67;;
55090;SDS011;40985;53.180;5.800;2023-05-10T01:31:52;29.92;;;21.63;;
55090;SDS011;40985;53.180;5.800;2023-05-10T01:34:35;29.17;;;22.83;;
55090;SDS011;40985;53.180;5.800;2023-05-10T01:37:15;30.95;;;22.80;;
55090;SDS011;40985;53.180;5.800;2023-05-10T01:39:53;35.78;;;22.05;;
55090;SDS011;40985;53.180;5.800;2023-05-10T01:42:25;35.88;;;21.02;;
55090;SDS011;40985;53.180;5.800;2023-05-10T01:45:02;31.35;;;22.13;;
55090;SDS011;40985;53.180;5.800;2023-05-10T01:47:43;39.17;;;23.80;;
55090;SDS011;40985;53.180;5.800;2023-05-10T01:50:15;41.33;;;25.85;;
55090;SDS011;40985;53.180;5.800;2023-05-10T01:52:47;37.03;;;24.45;;
55090;SDS011;40985;53.180;5.800;2023-05-10T01:55:18;38.53;;;26.15;;
55090;SDS011;40985;53.180;5.800;2023-05-10T01:57:46;39.92;;;26.08;;
55090;SDS011;40985;53.180;5.800;2023-05-10T02:00:16;39.58;;;26.58;;
55090;SDS011;40985;53.180;5.800;2023-05-10T02:02:46;35.83;;;26.63;;
55090;SDS011;40985;53.180;5.800;2023-05-10T02:05:15;42.35;;;29.20;;
55090;SDS011;40985;53.180;5.800;2023-05-10T02:07:42;38.10;;;27.00;;
55090;SDS011;40985;53.180;5.800;2023-05-10T02:10:09;39.92;;;26.92;;
55090;SDS011;40985;53.180;5.800;2023-05-10T02:12:37;32.45;;;24.38;;
55090;SDS011;40985;53.180;5.800;2023-05-10T02:15:06;37.72;;;24.75;;
55090;SDS011;40985;53.180;5.800;2023-05-10T02:17:34;33.30;;;22.98;;
55090;SDS011;40985;53.180;5.800;2023-05-10T02:20:02;34.70;;;22.48;;
55090;SDS011;40985;53.180;5.800;2023-05-10T02:22:29;29.10;;;20.42;;
55090;SDS011;40985;53.180;5.800;2023-05-10T02:24:56;25.10;;;18.35;;
55090;SDS011;40985;53.180;5.800;2023-05-10T02:27:23;24.83;;;17.30;;
55090;SDS011;40985;53.180;5.800;2023-05-10T02:29:50;20.00;;;15.98;;
55090;SDS011;40985;53.180;5.800;2023-05-10T02:32:17;16.13;;;14.40;;
55090;SDS011;40985;53.180;5.800;2023-05-10T02:34:44;14.05;;;11.52;;
55090;SDS011;40985;53.180;5.800;2023-05-10T02:37:11;13.38;;;12.05;;
55090;SDS011;40985;53.180;5.800;2023-05-10T02:39:39;13.90;;;11.13;;
55090;SDS011;40985;53.180;5.800;2023-05-10T02:42:11;8.98;;;8.10;;
55090;SDS011;40985;53.180;5.800;2023-05-10T02:44:44;5.03;;;4.72;;
55090;SDS011;40985;53.180;5.800;2023-05-10T02:47:12;2.92;;;2.67;;
55090;SDS011;40985;53.180;5.800;2023-05-10T02:49:38;2.60;;;2.40;;
55090;SDS011;40985;53.180;5.800;2023-05-10T02:52:04;1.92;;;1.83;;
55090;SDS011;40985;53.180;5.800;2023-05-10T02:54:37;0.90;;;0.90;;
55090;SDS011;40985;53.180;5.800;2023-05-10T02:57:08;0.68;;;0.50;;
55090;SDS011;40985;53.180;5.800;2023-05-10T02:59:36;0.60;;;0.60;;
55090;SDS011;40985;53.180;5.800;2023-05-10T03:02:02;0.93;;;0.43;;
55090;SDS011;40985;53.180;5.800;2023-05-10T03:04:28;0.47;;;0.40;;
55090;SDS011;40985;53.180;5.800;2023-05-10T03:06:54;0.90;;;0.75;;
55090;SDS011;40985;53.180;5.800;2023-05-10T03:09:20;0.40;;;0.40;;
55090;SDS011;40985;53.180;5.800;2023-05-10T03:12:47;4.10;;;0.47;;
55090;SDS011;40985;53.180;5.800;2023-05-10T03:19:55;0.75;;;0.30;;
55090;SDS011;40985;53.180;5.800;2023-05-10T03:22:33;0.52;;;0.30;;
55090;SDS011;40985;53.180;5.800;2023-05-10T03:25:04;0.70;;;0.40;;
55090;SDS011;40985;53.180;5.800;2023-05-10T03:27:32;0.50;;;0.40;;
55090;SDS011;40985;53.180;5.800;2023-05-10T03:29:58;0.30;;;0.30;;
55090;SDS011;40985;53.180;5.800;2023-05-10T03:32:26;0.40;;;0.40;;
55090;SDS011;40985;53.180;5.800;2023-05-10T03:34:55;0.60;;;0.30;;
55090;SDS011;40985;53.180;5.800;2023-05-10T03:37:21;0.40;;;0.40;;
55090;SDS011;40985;53.180;5.800;2023-05-10T03:39:46;0.40;;;0.40;;
55090;SDS011;40985;53.180;5.800;2023-05-10T03:42:12;0.90;;;0.90;;
55090;SDS011;40985;53.180;5.800;2023-05-10T03:44:41;0.40;;;0.40;;
55090;SDS011;40985;53.180;5.800;2023-05-10T03:47:06;0.55;;;0.55;;
55090;SDS011;40985;53.180;5.800;2023-05-10T03:49:32;1.25;;;0.30;;
55090;SDS011;40985;53.180;5.800;2023-05-10T03:51:57;0.47;;;0.30;;
55090;SDS011;40985;53.180;5.800;2023-05-10T03:54:23;0.88;;;0.30;;
55090;SDS011;40985;53.180;5.800;2023-05-10T03:56:49;0.20;;;0.20;;
55090;SDS011;40985;53.180;5.800;2023-05-10T03:59:14;0.20;;;0.20;;
55090;SDS011;40985;53.180;5.800;2023-05-10T04:01:40;0.40;;;0.40;;
55090;SDS011;40985;53.180;5.800;2023-05-10T04:04:06;0.65;;;0.30;;
55090;SDS011;40985;53.180;5.800;2023-05-10T04:06:31;0.40;;;0.30;;
55090;SDS011;40985;53.180;5.800;2023-05-10T04:08:57;0.95;;;0.40;;
55090;SDS011;40985;53.180;5.800;2023-05-10T04:11:25;0.40;;;0.40;;
55090;SDS011;40985;53.180;5.800;2023-05-10T04:13:51;0.50;;;0.50;;
55090;SDS011;40985;53.180;5.800;2023-05-10T04:16:16;1.02;;;0.70;;
55090;SDS011;40985;53.180;5.800;2023-05-10T04:18:42;0.65;;;0.65;;
55090;SDS011;40985;53.180;5.800;2023-05-10T04:21:14;0.50;;;0.50;;
55090;SDS011;40985;53.180;5.800;2023-05-10T04:23:40;0.40;;;0.40;;
55090;SDS011;40985;53.180;5.800;2023-05-10T04:26:06;0.75;;;0.50;;
55090;SDS011;40985;53.180;5.800;2023-05-10T04:28:32;0.82;;;0.50;;
55090;SDS011;40985;53.180;5.800;2023-05-10T04:31:02;0.60;;;0.50;;
55090;SDS011;40985;53.180;5.800;2023-05-10T04:33:31;0.55;;;0.52;;
55090;SDS011;40985;53.180;5.800;2023-05-10T04:35:57;0.80;;;0.50;;
55090;SDS011;40985;53.180;5.800;2023-05-10T04:38:23;0.60;;;0.60;;
55090;SDS011;40985;53.180;5.800;2023-05-10T04:40:49;0.70;;;0.60;;
55090;SDS011;40985;53.180;5.800;2023-05-10T04:43:15;1.42;;;1.23;;
55090;SDS011;40985;53.180;5.800;2023-05-10T04:45:41;1.63;;;1.52;;
55090;SDS011;40985;53.180;5.800;2023-05-10T04:48:06;2.70;;;2.50;;
55090;SDS011;40985;53.180;5.800;2023-05-10T04:50:32;3.75;;;3.55;;
55090;SDS011;40985;53.180;5.800;2023-05-10T04:52:58;4.85;;;4.45;;
55090;SDS011;40985;53.180;5.800;2023-05-10T04:55:24;5.97;;;5.53;;
55090;SDS011;40985;53.180;5.800;2023-05-10T04:57:50;7.22;;;6.72;;
55090;SDS011;40985;53.180;5.800;2023-05-10T05:00:15;7.60;;;6.90;;
55090;SDS011;40985;53.180;5.800;2023-05-10T05:02:44;7.35;;;6.85;;
55090;SDS011;40985;53.180;5.800;2023-05-10T05:05:11;8.75;;;8.00;;
55090;SDS011;40985;53.180;5.800;2023-05-10T05:07:37;7.80;;;7.15;;
55090;SDS011;40985;53.180;5.800;2023-05-10T05:10:06;8.90;;;8.00;;
55090;SDS011;40985;53.180;5.800;2023-05-10T05:12:33;7.75;;;7.15;;
55090;SDS011;40985;53.180;5.800;2023-05-10T05:14:59;8.38;;;6.97;;
55090;SDS011;40985;53.180;5.800;2023-05-10T05:17:25;6.70;;;6.18;;
55090;SDS011;40985;53.180;5.800;2023-05-10T05:19:51;5.60;;;5.10;;
55090;SDS011;40985;53.180;5.800;2023-05-10T05:22:17;6.07;;;5.57;;
55090;SDS011;40985;53.180;5.800;2023-05-10T05:24:44;4.95;;;4.55;;
55090;SDS011;40985;53.180;5.800;2023-05-10T05:27:10;4.22;;;3.92;;
55090;SDS011;40985;53.180;5.800;2023-05-10T05:29:36;4.55;;;3.55;;
55090;SDS011;40985;53.180;5.800;2023-05-10T05:32:01;5.50;;;4.85;;
55090;SDS011;40985;53.180;5.800;2023-05-10T05:34:27;5.18;;;4.78;;
55090;SDS011;40985;53.180;5.800;2023-05-10T05:36:53;4.40;;;4.10;;
55090;SDS011;40985;53.180;5.800;2023-05-10T05:39:19;5.13;;;4.72;;
55090;SDS011;40985;53.180;5.800;2023-05-10T05:41:44;2.80;;;2.60;;
55090;SDS011;40985;53.180;5.800;2023-05-10T05:44:11;2.55;;;2.08;;
55090;SDS011;40985;53.180;5.800;2023-05-10T05:46:36;1.88;;;1.58;;
55090;SDS011;40985;53.180;5.800;2023-05-10T05:49:02;1.90;;;1.42;;
55090;SDS011;40985;53.180;5.800;2023-05-10T05:51:28;1.90;;;1.80;;
55090;SDS011;40985;53.180;5.800;2023-05-10T05:53:53;1.50;;;1.35;;
55090;SDS011;40985;53.180;5.800;2023-05-10T05:56:19;1.73;;;1.40;;
55090;SDS011;40985;53.180;5.800;2023-05-10T05:58:49;1.27;;;1.15;;
55090;SDS011;40985;53.180;5.800;2023-05-10T06:01:15;1.98;;;1.77;;
55090;SDS011;40985;53.180;5.800;2023-05-10T06:03:41;3.47;;;2.15;;
55090;SDS011;40985;53.180;5.800;2023-05-10T06:06:07;2.38;;;2.17;;
55090;SDS011;40985;53.180;5.800;2023-05-10T06:08:32;2.30;;;2.10;;
55090;SDS011;40985;53.180;5.800;2023-05-10T06:10:59;3.38;;;3.17;;
55090;SDS011;40985;53.180;5.800;2023-05-10T06:13:25;3.22;;;2.85;;
55090;SDS011;40985;53.180;5.800;2023-05-10T06:15:57;3.65;;;3.35;;
55090;SDS011;40985;53.180;5.800;2023-05-10T06:18:25;3.80;;;3.50;;
55090;SDS011;40985;53.180;5.800;2023-05-10T06:20:51;3.75;;;3.05;;
55090;SDS011;40985;53.180;5.800;2023-05-10T06:23:16;2.80;;;2.60;;
55090;SDS011;40985;53.180;5.800;2023-05-10T06:25:42;2.53;;;2.38;;
55090;SDS011;40985;53.180;5.800;2023-05-10T06:28:08;2.78;;;2.50;;
55090;SDS011;40985;53.180;5.800;2023-05-10T06:30:35;3.25;;;2.88;;
55090;SDS011;40985;53.180;5.800;2023-05-10T06:33:01;2.97;;;2.70;;
55090;SDS011;40985;53.180;5.800;2023-05-10T06:35:27;2.92;;;2.38;;
55090;SDS011;40985;53.180;5.800;2023-05-10T06:37:53;2.65;;;2.10;;
55090;SDS011;40985;53.180;5.800;2023-05-10T06:40:19;2.05;;;1.95;;
55090;SDS011;40985;53.180;5.800;2023-05-10T06:42:46;2.25;;;2.05;;
55090;SDS011;40985;53.180;5.800;2023-05-10T06:45:12;2.40;;;2.20;;
55090;SDS011;40985;53.180;5.800;2023-05-10T06:47:39;3.17;;;2.75;;
55090;SDS011;40985;53.180;5.800;2023-05-10T06:50:06;3.45;;;3.17;;
55090;SDS011;40985;53.180;5.800;2023-05-10T06:52:33;5.28;;;4.43;;
55090;SDS011;40985;53.180;5.800;2023-05-10T06:54:58;10.27;;;6.03;;
55090;SDS011;40985;53.180;5.800;2023-05-10T06:57:25;4.53;;;4.18;;
55090;SDS011;40985;53.180;5.800;2023-05-10T06:59:51;7.63;;;4.70;;
55090;SDS011;40985;53.180;5.800;2023-05-10T07:02:17;6.25;;;4.80;;
55090;SDS011;40985;53.180;5.800;2023-05-10T07:04:43;9.68;;;5.15;;
55090;SDS011;40985;53.180;5.800;2023-05-10T07:07:08;8.13;;;4.63;;
55090;SDS011;40985;53.180;5.800;2023-05-10T07:09:34;7.40;;;4.13;;
55090;SDS011;40985;53.180;5.800;2023-05-10T07:12:00;3.88;;;3.25;;
55090;SDS011;40985;53.180;5.800;2023-05-10T07:14:27;4.25;;;3.63;;
55090;SDS011;40985;53.180;5.800;2023-05-10T07:16:53;5.80;;;3.70;;
55090;SDS011;40985;53.180;5.800;2023-05-10T07:19:18;4.78;;;3.30;;
55090;SDS011;40985;53.180;5.800;2023-05-10T07:21:44;3.85;;;3.42;;
55090;SDS011;40985;53.180;5.800;2023-05-10T07:24:10;5.22;;;3.63;;
55090;SDS011;40985;53.180;5.800;2023-05-10T07:26:36;5.68;;;3.13;;
55090;SDS011;40985;53.180;5.800;2023-05-10T07:29:02;3.35;;;3.05;;
55090;SDS011;40985;53.180;5.800;2023-05-10T07:31:28;3.53;;;2.80;;
55090;SDS011;40985;53.180;5.800;2023-05-10T07:33:53;5.50;;;3.53;;
55090;SDS011;40985;53.180;5.800;2023-05-10T07:36:19;4.07;;;3.72;;
55090;SDS011;40985;53.180;5.800;2023-05-10T07:38:45;6.50;;;3.63;;
55090;SDS011;40985;53.180;5.800;2023-05-10T07:41:11;5.50;;;4.28;;
55090;SDS011;40985;53.180;5.800;2023-05-10T07:43:37;4.90;;;4.43;;
55090;SDS011;40985;53.180;5.800;2023-05-10T07:46:03;5.82;;;4.78;;
55090;SDS011;40985;53.180;5.800;2023-05-10T07:48:28;4.88;;;4.32;;
55090;SDS011;40985;53.180;5.800;2023-05-10T07:50:54;4.60;;;4.20;;
55090;SDS011;40985;53.180;5.800;2023-05-10T07:53:19;5.47;;;4.88;;
55090;SDS011;40985;53.180;5.800;2023-05-10T07:55:57;4.72;;;4.32;;
55090;SDS011;40985;53.180;5.800;2023-05-10T07:58:23;4.28;;;3.88;;
55090;SDS011;40985;53.180;5.800;2023-05-10T08:00:49;4.72;;;4.32;;
55090;SDS011;40985;53.180;5.800;2023-05-10T08:03:15;5.25;;;4.70;;
55090;SDS011;40985;53.180;5.800;2023-05-10T08:05:41;5.55;;;4.40;;
55090;SDS011;40985;53.180;5.800;2023-05-10T08:08:06;4.88;;;4.05;;
55090;SDS011;40985;53.180;5.800;2023-05-10T08:10:32;6.53;;;4.22;;
55090;SDS011;40985;53.180;5.800;2023-05-10T08:12:58;4.15;;;3.78;;
55090;SDS011;40985;53.180;5.800;2023-05-10T08:15:24;3.95;;;3.63;;
55090;SDS011;40985;53.180;5.800;2023-05-10T08:17:53;4.28;;;3.97;;
55090;SDS011;40985;53.180;5.800;2023-05-10T08:20:19;5.43;;;4.20;;
55090;SDS011;40985;53.180;5.800;2023-05-10T08:22:45;4.88;;;4.47;;
55090;SDS011;40985;53.180;5.800;2023-05-10T08:25:11;6.07;;;4.65;;
55090;SDS011;40985;53.180;5.800;2023-05-10T08:27:37;5.60;;;4.30;;
55090;SDS011;40985;53.180;5.800;2023-05-10T08:30:03;4.55;;;4.15;;
55090;SDS011;40985;53.180;5.800;2023-05-10T08:32:29;5.18;;;4.68;;
55090;SDS011;40985;53.180;5.800;2023-05-10T08:34:55;4.65;;;4.25;;
55090;SDS011;40985;53.180;5.800;2023-05-10T08:37:23;7.60;;;4.47;;
55090;SDS011;40985;53.180;5.800;2023-05-10T08:39:49;5.18;;;4.60;;
55090;SDS011;40985;53.180;5.800;2023-05-10T08:42:16;5.35;;;4.85;;
55090;SDS011;40985;53.180;5.800;2023-05-10T08:44:45;6.93;;;5.07;;
55090;SDS011;40985;53.180;5.800;2023-05-10T08:47:13;4.93;;;4.45;;
55090;SDS011;40985;53.180;5.800;2023-05-10T08:49:41;6.25;;;4.97;;
55090;SDS011;40985;53.180;5.800;2023-05-10T08:52:11;6.68;;;5.68;;
55090;SDS011;40985;53.180;5.800;2023-05-10T08:54:40;7.80;;;6.90;;
55090;SDS011;40985;53.180;5.800;2023-05-10T08:57:06;6.75;;;6.15;;
55090;SDS011;40985;53.180;5.800;2023-05-10T08:59:32;7.85;;;6.75;;
55090;SDS011;40985;53.180;5.800;2023-05-10T09:01:58;9.00;;;6.90;;
55090;SDS011;40985;53.180;5.800;2023-05-10T09:04:25;9.80;;;7.40;;
55090;SDS011;40985;53.180;5.800;2023-05-10T09:06:51;8.50;;;6.90;;
55090;SDS011;40985;53.180;5.800;2023-05-10T09:09:17;10.40;;;7.80;;
55090;SDS011;40985;53.180;5.800;2023-05-10T09:11:44;8.35;;;7.00;;
55090;SDS011;40985;53.180;5.800;2023-05-10T09:14:11;7.90;;;6.75;;
55090;SDS011;40985;53.180;5.800;2023-05-10T09:16:38;6.50;;;5.93;;
55090;SDS011;40985;53.180;5.800;2023-05-10T09:19:04;6.72;;;5.90;;
55090;SDS011;40985;53.180;5.800;2023-05-10T09:21:31;5.22;;;4.78;;
55090;SDS011;40985;53.180;5.800;2023-05-10T09:24:02;6.40;;;5.00;;
55090;SDS011;40985;53.180;5.800;2023-05-10T09:26:30;6.18;;;5.35;;
55090;SDS011;40985;53.180;5.800;2023-05-10T09:28:56;6.57;;;5.25;;
55090;SDS011;40985;53.180;5.800;2023-05-10T09:31:59;6.43;;;5.82;;
55090;SDS011;40985;53.180;5.800;2023-05-10T09:34:30;6.28;;;5.68;;
55090;SDS011;40985;53.180;5.800;2023-05-10T09:36:58;6.90;;;5.90;;
55090;SDS011;40985;53.180;5.800;2023-05-10T09:42:01;9.23;;;6.30;;
55090;SDS011;40985;53.180;5.800;2023-05-10T09:44:29;6.82;;;5.95;;
55090;SDS011;40985;53.180;5.800;2023-05-10T09:46:55;6.07;;;5.47;;
55090;SDS011;40985;53.180;5.800;2023-05-10T09:49:21;6.25;;;5.75;;
55090;SDS011;40985;53.180;5.800;2023-05-10T09:51:47;6.63;;;6.13;;
55090;SDS011;40985;53.180;5.800;2023-05-10T09:54:24;7.68;;;5.45;;
55090;SDS011;40985;53.180;5.800;2023-05-10T09:56:50;5.93;;;5.32;;
55090;SDS011;40985;53.180;5.800;2023-05-10T09:59:15;6.18;;;5.35;;
55090;SDS011;40985;53.180;5.800;2023-05-10T10:01:42;6.55;;;5.43;;
55090;SDS011;40985;53.180;5.800;2023-05-10T10:04:15;6.43;;;5.72;;
55090;SDS011;40985;53.180;5.800;2023-05-10T10:06:41;5.70;;;5.20;;
55090;SDS011;40985;53.180;5.800;2023-05-10T10:09:06;5.70;;;5.25;;
55090;SDS011;40985;53.180;5.800;2023-05-10T10:11:36;7.57;;;5.80;;
55090;SDS011;40985;53.180;5.800;2023-05-10T10:14:02;6.22;;;5.22;;
55090;SDS011;40985;53.180;5.800;2023-05-10T10:16:29;5.68;;;5.28;;
55090;SDS011;40985;53.180;5.800;2023-05-10T10:18:55;6.30;;;5.70;;
55090;SDS011;40985;53.180;5.800;2023-05-10T10:21:22;7.20;;;6.60;;
55090;SDS011;40985;53.180;5.800;2023-05-10T10:23:48;7.68;;;7.05;;
55090;SDS011;40985;53.180;5.800;2023-05-10T10:26:14;7.63;;;6.93;;
55090;SDS011;40985;53.180;5.800;2023-05-10T10:31:40;6.30;;;5.70;;
55090;SDS011;40985;53.180;5.800;2023-05-10T10:34:17;5.07;;;4.20;;
55090;SDS011;40985;53.180;5.800;2023-05-10T10:36:47;5.65;;;5.05;;
55090;SDS011;40985;53.180;5.800;2023-05-10T10:39:13;4.68;;;4.30;;
55090;SDS011;40985;53.180;5.800;2023-05-10T10:41:49;5.03;;;4.60;;
55090;SDS011;40985;53.180;5.800;2023-05-10T10:57:27;7.15;;;6.32;;
55090;SDS011;40985;53.180;5.800;2023-05-10T11:00:29;6.18;;;5.75;;
55090;SDS011;40985;53.180;5.800;2023-05-10T11:02:48;4.60;;;4.20;;
55090;SDS011;40985;53.180;5.800;2023-05-10T11:05:33;5.82;;;4.95;;
55090;SDS011;40985;53.180;5.800;2023-05-10T11:10:48;6.13;;;5.20;;
55090;SDS011;40985;53.180;5.800;2023-05-10T11:16:21;6.47;;;5.88;;
55090;SDS011;40985;53.180;5.800;2023-05-10T11:18:57;7.22;;;6.53;;
55090;SDS011;40985;53.180;5.800;2023-05-10T11:21:28;7.07;;;6.35;;
55090;SDS011;40985;53.180;5.800;2023-05-10T11:23:58;6.13;;;5.65;;
55090;SDS011;40985;53.180;5.800;2023-05-10T11:26:29;6.22;;;5.72;;
55090;SDS011;40985;53.180;5.800;2023-05-10T11:28:57;6.13;;;5.40;;
55090;SDS011;40985;53.180;5.800;2023-05-10T11:31:26;3.92;;;3.50;;
55090;SDS011;40985;53.180;5.800;2023-05-10T11:33:54;4.72;;;4.32;;
55090;SDS011;40985;53.180;5.800;2023-05-10T11:36:25;5.45;;;5.15;;
55090;SDS011;40985;53.180;5.800;2023-05-10T11:38:52;6.13;;;5.53;;
55090;SDS011;40985;53.180;5.800;2023-05-10T11:41:19;4.80;;;4.50;;
55090;SDS011;40985;53.180;5.800;2023-05-10T11:43:47;4.78;;;4.47;;
55090;SDS011;40985;53.180;5.800;2023-05-10T11:46:15;5.43;;;5.03;;
55090;SDS011;40985;53.180;5.800;2023-05-10T11:48:43;7.30;;;5.85;;
55090;SDS011;40985;53.180;5.800;2023-05-10T11:51:09;6.97;;;6.28;;
55090;SDS011;40985;53.180;5.800;2023-05-10T11:53:36;6.32;;;5.72;;
55090;SDS011;40985;53.180;5.800;2023-05-10T11:56:03;4.93;;;4.50;;
55090;SDS011;40985;53.180;5.800;2023-05-10T11:58:30;7.05;;;6.45;;
55090;SDS011;40985;53.180;5.800;2023-05-10T12:00:57;7.55;;;6.85;;
55090;SDS011;40985;53.180;5.800;2023-05-10T12:03:27;7.93;;;7.22;;
55090;SDS011;40985;53.180;5.800;2023-05-10T12:05:53;7.93;;;7.10;;
55090;SDS011;40985;53.180;5.800;2023-05-10T12:08:21;8.32;;;7.60;;
55090;SDS011;40985;53.180;5.800;2023-05-10T12:10:48;7.75;;;6.90;;
55090;SDS011;40985;53.180;5.800;2023-05-10T12:13:14;7.25;;;6.65;;
55090;SDS011;40985;53.180;5.800;2023-05-10T12:15:40;9.23;;;8.32;;
55090;SDS011;40985;53.180;5.800;2023-05-10T12:18:10;8.60;;;7.78;;
55090;SDS011;40985;53.180;5.800;2023-05-10T12:20:37;8.50;;;7.72;;
55090;SDS011;40985;53.180;5.800;2023-05-10T12:23:04;9.10;;;7.82;;
55090;SDS011;40985;53.180;5.800;2023-05-10T12:25:31;8.07;;;7.25;;
55090;SDS011;40985;53.180;5.800;2023-05-10T12:27:59;6.68;;;6.07;;
55090;SDS011;40985;53.180;5.800;2023-05-10T12:30:29;9.00;;;7.97;;
55090;SDS011;40985;53.180;5.800;2023-05-10T12:33:10;8.52;;;7.60;;
55090;SDS011;40985;53.180;5.800;2023-05-10T12:35:45;7.50;;;6.85;;
55090;SDS011;40985;53.180;5.800;2023-05-10T12:38:24;6.78;;;6.15;;
55090;SDS011;40985;53.180;5.800;2023-05-10T12:40:54;7.40;;;6.80;;
55090;SDS011;40985;53.180;5.800;2023-05-10T12:43:21;5.95;;;5.45;;
55090;SDS011;40985;53.180;5.800;2023-05-10T12:45:47;7.13;;;6.53;;
55090;SDS011;40985;53.180;5.800;2023-05-10T12:48:14;6.90;;;6.30;;
55090;SDS011;40985;53.180;5.800;2023-05-10T12:50:40;6.63;;;6.03;;
55090;SDS011;40985;53.180;5.800;2023-05-10T12:53:05;7.57;;;6.88;;
55090;SDS011;40985;53.180;5.800;2023-05-10T12:55:31;6.35;;;5.85;;
55090;SDS011;40985;53.180;5.800;2023-05-10T12:57:57;7.63;;;6.93;;
55090;SDS011;40985;53.180;5.800;2023-05-10T13:00:23;8.82;;;8.02;;
55090;SDS011;40985;53.180;5.800;2023-05-10T13:02:48;9.93;;;8.93;;
55090;SDS011;40985;53.180;5.800;2023-05-10T13:05:14;7.22;;;6.47;;
55090;SDS011;40985;53.180;5.800;2023-05-10T13:07:40;5.93;;;5.40;;
55090;SDS011;40985;53.180;5.800;2023-05-10T13:10:06;7.15;;;4.70;;
55090;SDS011;40985;53.180;5.800;2023-05-10T13:12:32;6.10;;;5.50;;
55090;SDS011;40985;53.180;5.800;2023-05-10T13:14:58;6.63;;;5.43;;
55090;SDS011;40985;53.180;5.800;2023-05-10T13:17:24;6.60;;;5.82;;
55090;SDS011;40985;53.180;5.800;2023-05-10T13:19:50;6.40;;;5.53;;
55090;SDS011;40985;53.180;5.800;2023-05-10T13:22:16;6.55;;;5.55;;
55090;SDS011;40985;53.180;5.800;2023-05-10T13:24:42;4.82;;;3.90;;
55090;SDS011;40985;53.180;5.800;2023-05-10T13:27:08;7.55;;;5.80;;
55090;SDS011;40985;53.180;5.800;2023-05-10T13:29:33;7.85;;;6.20;;
55090;SDS011;40985;53.180;5.800;2023-05-10T13:31:59;6.90;;;6.25;;
55090;SDS011;40985;53.180;5.800;2023-05-10T13:34:26;5.57;;;5.07;;
55090;SDS011;40985;53.180;5.800;2023-05-10T13:36:52;4.28;;;3.88;;
55090;SDS011;40985;53.180;5.800;2023-05-10T13:39:19;3.55;;;2.95;;
55090;SDS011;40985;53.180;5.800;2023-05-10T13:41:45;3.22;;;2.65;;
55090;SDS011;40985;53.180;5.800;2023-05-10T13:44:12;3.80;;;3.40;;
55090;SDS011;40985;53.180;5.800;2023-05-10T13:46:39;6.22;;;5.63;;
55090;SDS011;40985;53.180;5.800;2023-05-10T13:49:06;5.00;;;4.70;;
55090;SDS011;40985;53.180;5.800;2023-05-10T13:51:33;5.00;;;4.68;;
55090;SDS011;40985;53.180;5.800;2023-05-10T13:53:59;5.45;;;5.15;;
55090;SDS011;40985;53.180;5.800;2023-05-10T13:56:24;5.30;;;4.88;;
55090;SDS011;40985;53.180;5.800;2023-05-10T13:58:50;4.60;;;4.30;;
55090;SDS011;40985;53.180;5.800;2023-05-10T14:01:16;5.32;;;4.93;;
55090;SDS011;40985;53.180;5.800;2023-05-10T14:03:42;4.22;;;3.85;;
55090;SDS011;40985;53.180;5.800;2023-05-10T14:06:07;3.45;;;3.25;;
55090;SDS011;40985;53.180;5.800;2023-05-10T14:08:34;3.92;;;3.70;;
55090;SDS011;40985;53.180;5.800;2023-05-10T14:11:00;2.85;;;2.58;;
55090;SDS011;40985;53.180;5.800;2023-05-10T14:13:26;3.70;;;3.25;;
55090;SDS011;40985;53.180;5.800;2023-05-10T14:15:53;3.70;;;3.50;;
55090;SDS011;40985;53.180;5.800;2023-05-10T14:18:18;3.88;;;3.67;;
55090;SDS011;40985;53.180;5.800;2023-05-10T14:20:44;3.45;;;3.25;;
55090;SDS011;40985;53.180;5.800;2023-05-10T14:23:10;3.83;;;3.50;;
55090;SDS011;40985;53.180;5.800;2023-05-10T14:25:36;3.05;;;2.95;;
55090;SDS011;40985;53.180;5.800;2023-05-10T14:28:02;3.28;;;3.03;;
55090;SDS011;40985;53.180;5.800;2023-05-10T14:30:28;2.83;;;2.63;;
55090;SDS011;40985;53.180;5.800;2023-05-10T14:32:54;2.78;;;2.65;;
55090;SDS011;40985;53.180;5.800;2023-05-10T14:35:20;2.83;;;2.63;;
55090;SDS011;40985;53.180;5.800;2023-05-10T14:37:46;3.05;;;2.90;;
55090;SDS011;40985;53.180;5.800;2023-05-10T14:40:12;3.20;;;3.00;;
55090;SDS011;40985;53.180;5.800;2023-05-10T14:42:37;3.70;;;3.50;;
55090;SDS011;40985;53.180;5.800;2023-05-10T14:45:03;3.50;;;3.40;;
55090;SDS011;40985;53.180;5.800;2023-05-10T14:47:29;3.47;;;3.28;;
55090;SDS011;40985;53.180;5.800;2023-05-10T14:49:55;3.97;;;3.65;;
55090;SDS011;40985;53.180;5.800;2023-05-10T14:52:21;3.92;;;3.72;;
55090;SDS011;40985;53.180;5.800;2023-05-10T14:54:47;4.20;;;4.00;;
55090;SDS011;40985;53.180;5.800;2023-05-10T14:57:13;4.35;;;4.10;;
55090;SDS011;40985;53.180;5.800;2023-05-10T14:59:38;4.13;;;3.92;;
55090;SDS011;40985;53.180;5.800;2023-05-10T15:02:04;4.43;;;4.13;;
55090;SDS011;40985;53.180;5.800;2023-05-10T15:04:30;4.55;;;4.35;;
55090;SDS011;40985;53.180;5.800;2023-05-10T15:06:56;4.60;;;4.40;;
55090;SDS011;40985;53.180;5.800;2023-05-10T15:09:24;4.95;;;4.65;;
55090;SDS011;40985;53.180;5.800;2023-05-10T15:11:49;4.28;;;4.07;;
55090;SDS011;40985;53.180;5.800;2023-05-10T15:14:15;4.05;;;3.85;;
55090;SDS011;40985;53.180;5.800;2023-05-10T15:16:41;3.83;;;3.63;;
55090;SDS011;40985;53.180;5.800;2023-05-10T15:19:06;5.82;;;5.22;;
55090;SDS011;40985;53.180;5.800;2023-05-10T15:21:32;4.80;;;4.50;;
55090;SDS011;40985;53.180;5.800;2023-05-10T15:24:04;4.90;;;4.60;;
55090;SDS011;40985;53.180;5.800;2023-05-10T15:26:30;4.82;;;4.53;;